createdAt,value
2019-04-25T00:01:16.930Z,69.23
2019-04-25T00:03:48.723Z,69.04
2019-04-25T00:06:21.546Z,68.29
2019-04-25T00:08:54.158Z,68.19
2019-04-25T00:11:26.672Z,68.17
2019-04-25T00:13:58.601Z,68.46
2019-04-25T00:16:32.471Z,68.16
2019-04-25T00:19:04.263Z,68.31
2019-04-25T00:21:46.688Z,68.59
2019-04-25T00:24:27.944Z,68.41
2019-04-25T00:26:59.773Z,68.86
2019-04-25T00:29:31.902Z,69.04
2019-04-25T00:32:04.147Z,69.03
2019-04-25T00:34:35.748Z,68.38
2019-04-25T00:37:07.864Z,68.29
2019-04-25T00:39:39.599Z,68.27
2019-04-25T00:42:12.200Z,68.29
2019-04-25T00:44:45.044Z,68.31
2019-04-25T00:47:17.614Z,68.41
2019-04-25T00:49:49.049Z,68.44
2019-04-25T00:52:22.753Z,69.17
2019-04-25T00:54:54.590Z,69.89
2019-04-25T00:57:27.580Z,69.95
2019-04-25T01:00:18.492Z,70.49
2019-04-25T01:02:53.197Z,70.20
2019-04-25T01:05:24.635Z,69.74
2019-04-25T01:07:56.051Z,70.28
2019-04-25T01:10:28.092Z,70.49
2019-04-25T01:13:01.367Z,70.64
2019-04-25T01:15:33.542Z,70.66
2019-04-25T01:18:06.624Z,70.90
2019-04-25T01:20:38.418Z,70.52
2019-04-25T01:23:09.900Z,70.18
2019-04-25T01:25:43.090Z,69.88
2019-04-25T01:28:15.543Z,69.55
2019-04-25T01:30:47.883Z,69.68
2019-04-25T01:33:20.103Z,69.48
2019-04-25T01:35:57.468Z,69.79
2019-04-25T01:38:56.638Z,69.90
2019-04-25T01:41:55.022Z,70.19
2019-04-25T01:44:34.080Z,70.44
2019-04-25T01:47:05.997Z,70.92
2019-04-25T01:49:37.662Z,71.42
2019-04-25T01:52:09.381Z,71.41
2019-04-25T01:54:41.107Z,71.28
2019-04-25T01:57:14.250Z,70.91
2019-04-25T01:59:46.207Z,70.67
2019-04-25T02:02:23.362Z,70.25
2019-04-25T02:04:58.765Z,70.20
2019-04-25T02:07:28.893Z,70.06
2019-04-25T02:10:01.688Z,69.60
2019-04-25T02:12:43.570Z,69.69
2019-04-25T02:15:16.966Z,69.65
2019-04-25T02:17:47.659Z,69.61
2019-04-25T02:20:19.184Z,69.64
2019-04-25T02:22:52.145Z,69.71
2019-04-25T02:25:24.620Z,69.63
2019-04-25T02:27:59.958Z,69.95
2019-04-25T02:30:30.129Z,70.16
2019-04-25T02:33:04.413Z,70.26
2019-04-25T02:35:42.779Z,70.82
2019-04-25T02:38:16.640Z,70.56
2019-04-25T02:40:45.730Z,69.95
2019-04-25T02:43:17.372Z,70.10
2019-04-25T02:46:20.228Z,70.65
2019-04-25T02:49:29.730Z,70.84
2019-04-25T02:52:17.979Z,70.85
2019-04-25T02:54:49.443Z,71.97
2019-04-25T02:57:20.918Z,73.21
2019-04-25T02:59:54.578Z,73.54
2019-04-25T03:02:26.054Z,73.76
2019-04-25T03:04:59.454Z,73.96
2019-04-25T03:07:31.401Z,74.21
2019-04-25T03:10:06.166Z,74.32
2019-04-25T03:12:37.676Z,73.82
2019-04-25T03:15:10.336Z,73.52
2019-04-25T03:17:44.133Z,73.22
2019-04-25T03:20:36.593Z,73.05
2019-04-25T03:23:34.946Z,73.26
2019-04-25T03:26:07.510Z,73.00
2019-04-25T03:28:39.447Z,72.75
2019-04-25T03:31:16.073Z,72.76
2019-04-25T03:33:45.945Z,72.97
2019-04-25T03:36:17.121Z,73.17
2019-04-25T03:38:49.165Z,72.68
2019-04-25T03:41:20.821Z,72.15
2019-04-25T03:43:54.021Z,71.50
2019-04-25T03:46:26.045Z,71.45
2019-04-25T03:48:57.769Z,71.52
2019-04-25T03:51:29.313Z,71.71
2019-04-25T03:54:01.679Z,71.93
2019-04-25T03:56:33.447Z,72.09
2019-04-25T03:59:06.336Z,71.80
2019-04-25T04:01:38.971Z,71.80
2019-04-25T04:04:11.142Z,72.11
2019-04-25T04:06:44.113Z,72.14
2019-04-25T04:09:15.238Z,72.23
2019-04-25T04:11:47.048Z,71.31
2019-04-25T04:14:18.668Z,71.39
2019-04-25T04:17:08.806Z,71.98
2019-04-25T04:20:03.934Z,72.35
2019-04-25T04:22:41.035Z,72.27
2019-04-25T04:25:14.517Z,72.45
2019-04-25T04:27:46.786Z,71.80
2019-04-25T04:30:18.717Z,71.36
2019-04-25T04:32:50.430Z,70.76
2019-04-25T04:35:23.529Z,70.88
2019-04-25T04:37:54.239Z,70.56
2019-04-25T04:40:26.082Z,70.20
2019-04-25T04:42:57.885Z,69.83
2019-04-25T04:45:29.498Z,69.13
2019-04-25T04:48:01.085Z,69.06
2019-04-25T04:50:33.633Z,68.44
2019-04-25T04:53:05.800Z,68.95
2019-04-25T04:55:37.966Z,68.65
2019-04-25T04:58:11.050Z,67.79
2019-04-25T05:00:41.584Z,67.25
2019-04-25T05:03:39.315Z,66.91
2019-04-25T05:06:25.241Z,66.31
2019-04-25T05:09:01.229Z,66.12
2019-04-25T05:11:34.745Z,65.57
2019-04-25T05:14:06.315Z,65.23
2019-04-25T05:16:38.297Z,65.08
2019-04-25T05:19:10.249Z,64.31
2019-04-25T05:21:43.564Z,64.01
2019-04-25T05:24:16.385Z,63.61
2019-04-25T05:26:48.601Z,63.01
2019-04-25T05:29:22.482Z,62.26
2019-04-25T05:31:54.261Z,61.76
2019-04-25T05:34:26.095Z,60.95
2019-04-25T05:36:57.935Z,61.01
2019-04-25T05:39:29.804Z,60.14
2019-04-25T05:42:20.390Z,59.95
2019-04-25T05:44:52.319Z,59.05
2019-04-25T05:47:26.090Z,59.43
2019-04-25T05:49:57.228Z,59.26
2019-04-25T05:52:28.820Z,58.85
2019-04-25T05:55:00.365Z,58.99
2019-04-25T05:57:45.221Z,59.07
2019-04-25T06:00:05.840Z,58.68
2019-04-25T06:02:37.493Z,58.91
2019-04-25T06:05:10.260Z,58.44
2019-04-25T06:07:43.212Z,58.17
2019-04-25T06:10:33.927Z,58.10
2019-04-25T06:13:26.439Z,58.89
2019-04-25T06:16:20.316Z,57.74
2019-04-25T06:19:13.621Z,56.75
2019-04-25T06:21:36.451Z,57.30
2019-04-25T06:24:27.455Z,57.31
2019-04-25T06:27:19.725Z,56.27
2019-04-25T06:30:01.017Z,56.72
2019-04-25T06:32:35.467Z,55.63
2019-04-25T06:35:08.327Z,55.07
2019-04-25T06:37:39.919Z,54.65
2019-04-25T06:40:13.699Z,54.78
2019-04-25T06:42:46.910Z,55.35
2019-04-25T06:45:37.216Z,54.04
2019-04-25T06:48:46.764Z,53.90
2019-04-25T06:51:18.454Z,53.53
2019-04-25T06:53:50.327Z,54.21
2019-04-25T06:56:25.244Z,53.53
2019-04-25T06:58:57.946Z,53.89
2019-04-25T07:01:30.466Z,53.60
2019-04-25T07:04:03.992Z,52.69
2019-04-25T07:06:36.048Z,52.79
2019-04-25T07:09:10.223Z,52.45
2019-04-25T07:11:44.065Z,53.11
2019-04-25T07:14:16.109Z,52.46
2019-04-25T07:16:47.842Z,52.26
2019-04-25T07:19:19.459Z,51.36
2019-04-25T07:21:51.235Z,51.81
2019-04-25T07:24:24.815Z,52.44
2019-04-25T07:27:26.630Z,51.33
2019-04-25T07:30:26.897Z,51.35
2019-04-25T07:32:54.538Z,51.66
2019-04-25T07:35:26.775Z,50.80
2019-04-25T07:37:58.522Z,50.86
2019-04-25T07:40:31.763Z,49.21
2019-04-25T07:43:04.886Z,47.55
2019-04-25T07:45:36.990Z,47.51
2019-04-25T07:48:09.131Z,48.46
2019-04-25T07:50:41.070Z,46.42
2019-04-25T07:53:14.264Z,46.97
2019-04-25T07:55:46.297Z,46.73
2019-04-25T07:58:18.424Z,45.94
2019-04-25T08:00:50.366Z,45.64
2019-04-25T08:03:23.667Z,44.56
2019-04-25T08:05:55.885Z,43.90
2019-04-25T08:08:28.181Z,44.34
2019-04-25T08:11:05.745Z,43.21
2019-04-25T08:13:59.426Z,43.98
2019-04-25T08:16:34.321Z,43.15
2019-04-25T08:19:06.972Z,43.95
2019-04-25T08:21:39.039Z,42.18
2019-04-25T08:24:11.100Z,41.35
2019-04-25T08:26:43.675Z,40.84
2019-04-25T08:29:15.729Z,42.26
2019-04-25T08:31:47.514Z,43.36
2019-04-25T08:34:19.511Z,42.46
2019-04-25T08:36:51.599Z,41.08
2019-04-25T08:39:24.061Z,41.64
2019-04-25T08:41:57.055Z,40.93
2019-04-25T08:44:28.752Z,39.73
2019-04-25T08:47:00.645Z,41.29
2019-04-25T08:49:38.385Z,41.17
2019-04-25T08:52:10.204Z,39.66
2019-04-25T08:54:56.194Z,40.03
2019-04-25T08:57:45.105Z,39.63
2019-04-25T09:00:35.477Z,40.14
2019-04-25T09:03:06.624Z,39.93
2019-04-25T09:05:46.098Z,39.51
2019-04-25T09:08:17.325Z,41.09
2019-04-25T09:10:49.107Z,38.05
2019-04-25T09:13:20.856Z,38.75
2019-04-25T09:15:54.012Z,39.26
2019-04-25T09:18:26.064Z,37.89
2019-04-25T09:20:57.825Z,38.32
2019-04-25T09:23:29.616Z,37.70
2019-04-25T09:26:02.309Z,39.06
2019-04-25T09:28:37.606Z,38.10
2019-04-25T09:31:07.666Z,37.21
2019-04-25T09:33:39.571Z,36.76
2019-04-25T09:36:11.465Z,37.78
2019-04-25T09:38:46.990Z,35.56
2019-04-25T09:41:16.439Z,34.70
2019-04-25T09:43:48.706Z,34.50
2019-04-25T09:46:26.301Z,35.22
2019-04-25T09:49:09.751Z,35.16
2019-04-25T09:51:49.361Z,34.60
2019-04-25T09:54:39.890Z,35.13
2019-04-25T09:57:30.559Z,35.01
2019-04-25T10:00:03.675Z,33.86
2019-04-25T10:02:37.020Z,33.82
2019-04-25T10:05:09.215Z,33.94
2019-04-25T10:07:40.903Z,34.81
2019-04-25T10:10:13.514Z,33.96
2019-04-25T10:12:45.336Z,34.32
2019-04-25T10:15:39.057Z,34.19
2019-04-25T10:18:10.960Z,33.49
2019-04-25T10:20:43.485Z,33.94
2019-04-25T10:23:16.816Z,33.47
2019-04-25T10:25:48.649Z,33.47
2019-04-25T10:28:20.336Z,33.19
2019-04-25T10:30:53.169Z,32.80
2019-04-25T10:33:26.746Z,31.96
2019-04-25T10:36:00.780Z,31.96
2019-04-25T10:38:33.464Z,31.37
2019-04-25T10:41:06.751Z,31.06
2019-04-25T10:43:39.650Z,31.06
2019-04-25T10:46:14.163Z,31.86
2019-04-25T10:48:46.116Z,31.86
2019-04-25T10:51:17.738Z,31.15
2019-04-25T10:53:49.502Z,30.63
2019-04-25T10:56:20.826Z,29.85
2019-04-25T10:58:54.548Z,31.47
2019-04-25T11:01:26.318Z,30.40
2019-04-25T11:04:13.841Z,30.71
2019-04-25T11:06:45.640Z,29.53
2019-04-25T11:09:25.783Z,30.58
2019-04-25T11:12:00.732Z,31.22
2019-04-25T11:14:34.225Z,30.94
2019-04-25T11:17:06.263Z,30.76
2019-04-25T11:19:38.283Z,31.73
2019-04-25T11:22:09.753Z,31.30
2019-04-25T11:24:41.513Z,30.21
2019-04-25T11:27:14.077Z,30.57
2019-04-25T11:29:46.262Z,31.41
2019-04-25T11:32:20.506Z,31.29
2019-04-25T11:34:53.202Z,29.42
2019-04-25T11:37:27.219Z,31.27
2019-04-25T11:40:05.302Z,29.53
2019-04-25T11:42:36.989Z,29.05
2019-04-25T11:45:10.643Z,29.46
2019-04-25T11:47:43.370Z,29.30
2019-04-25T11:50:15.710Z,28.29
2019-04-25T11:52:47.635Z,28.17
2019-04-25T11:55:20.121Z,27.26
2019-04-25T11:57:53.171Z,26.74
2019-04-25T12:00:27.947Z,25.54
2019-04-25T12:02:59.643Z,26.13
2019-04-25T12:05:31.256Z,26.07
2019-04-25T12:08:04.085Z,25.73
2019-04-25T12:10:36.423Z,24.94
2019-04-25T12:13:08.058Z,24.30
2019-04-25T12:15:39.982Z,23.84
2019-04-25T12:18:13.782Z,23.01
2019-04-25T12:20:46.554Z,23.83
2019-04-25T12:23:18.938Z,23.56
2019-04-25T12:25:50.368Z,22.90
2019-04-25T12:28:23.526Z,24.20
2019-04-25T12:30:56.454Z,24.61
2019-04-25T12:33:28.586Z,25.99
2019-04-25T12:36:00.527Z,26.73
2019-04-25T12:38:35.105Z,28.04
2019-04-25T12:41:05.733Z,29.03
2019-04-25T12:43:39.277Z,29.47
2019-04-25T12:46:29.312Z,30.08
2019-04-25T12:49:01.002Z,30.38
2019-04-25T12:51:33.949Z,31.20
2019-04-25T12:54:06.625Z,30.86
2019-04-25T12:56:37.491Z,31.74
2019-04-25T12:59:09.203Z,30.88
2019-04-25T13:01:41.081Z,31.80
2019-04-25T13:04:15.840Z,31.93
2019-04-25T13:06:48.754Z,31.92
2019-04-25T13:09:20.910Z,30.92
2019-04-25T13:11:53.461Z,30.08
2019-04-25T13:14:25.234Z,29.35
2019-04-25T13:16:56.772Z,29.65
2019-04-25T13:19:28.456Z,28.66
2019-04-25T13:22:00.663Z,28.05
2019-04-25T13:24:32.717Z,27.90
2019-04-25T13:27:26.714Z,28.81
2019-04-25T13:30:07.913Z,29.37
2019-04-25T13:32:58.683Z,29.84
2019-04-25T13:35:38.985Z,29.26
2019-04-25T13:38:11.097Z,29.36
2019-04-25T13:40:42.786Z,29.21
2019-04-25T13:43:14.663Z,31.52
2019-04-25T13:45:46.562Z,31.03
2019-04-25T13:48:18.554Z,30.64
2019-04-25T13:50:50.318Z,31.51
2019-04-25T13:53:23.519Z,31.74
2019-04-25T13:55:55.579Z,31.64
2019-04-25T13:58:30.519Z,29.32
2019-04-25T14:01:12.345Z,29.19
2019-04-25T14:03:35.795Z,29.19
2019-04-25T14:06:07.681Z,30.02
2019-04-25T14:08:39.474Z,29.16
2019-04-25T14:11:11.562Z,29.06
2019-04-25T14:13:43.121Z,30.18
2019-04-25T14:16:34.920Z,30.62
2019-04-25T14:19:29.426Z,30.21
2019-04-25T14:22:04.314Z,30.57
2019-04-25T14:24:36.276Z,30.60
2019-04-25T14:27:08.593Z,30.67
2019-04-25T14:29:40.322Z,30.26
2019-04-25T14:32:13.641Z,30.76
2019-04-25T14:34:45.534Z,30.76
2019-04-25T14:37:17.413Z,30.17
2019-04-25T14:39:49.111Z,30.59
2019-04-25T14:42:21.037Z,30.08
2019-04-25T14:44:52.799Z,30.02
2019-04-25T14:47:24.516Z,29.32
2019-04-25T14:49:56.581Z,29.17
2019-04-25T14:52:28.159Z,29.75
2019-04-25T14:55:18.603Z,30.38
2019-04-25T14:57:50.571Z,30.33
2019-04-25T15:00:34.853Z,31.08
2019-04-25T15:03:06.818Z,31.60
2019-04-25T15:05:41.114Z,31.83
2019-04-25T15:08:12.150Z,32.01
2019-04-25T15:10:43.830Z,32.33
2019-04-25T15:13:15.699Z,32.54
2019-04-25T15:15:47.247Z,33.08
2019-04-25T15:18:19.091Z,33.30
2019-04-25T15:20:50.882Z,33.49
2019-04-25T15:23:24.023Z,34.89
2019-04-25T15:25:56.093Z,36.82
2019-04-25T15:28:27.603Z,38.61
2019-04-25T15:30:59.590Z,38.74
2019-04-25T15:33:31.364Z,39.45
2019-04-25T15:36:12.669Z,38.11
2019-04-25T15:38:52.504Z,38.50
2019-04-25T15:41:46.064Z,38.58
2019-04-25T15:44:35.365Z,38.56
2019-04-25T15:47:10.564Z,38.61
2019-04-25T15:49:42.929Z,38.83
2019-04-25T15:52:14.753Z,38.78
2019-04-25T15:54:46.259Z,36.95
2019-04-25T15:57:17.840Z,37.67
2019-04-25T15:59:49.820Z,37.60
2019-04-25T16:02:21.639Z,37.35
2019-04-25T16:04:53.319Z,37.10
2019-04-25T16:07:25.197Z,37.35
2019-04-25T16:09:57.126Z,37.04
2019-04-25T16:12:29.229Z,36.96
2019-04-25T16:15:00.947Z,37.22
2019-04-25T16:17:32.951Z,38.26
2019-04-25T16:20:04.704Z,39.33
2019-04-25T16:22:36.679Z,39.51
2019-04-25T16:25:08.522Z,41.40
2019-04-25T16:27:41.064Z,42.10
2019-04-25T16:30:13.300Z,43.22
2019-04-25T16:32:45.040Z,43.68
2019-04-25T16:35:16.632Z,44.09
2019-04-25T16:37:48.762Z,44.28
2019-04-25T16:40:23.666Z,42.76
2019-04-25T16:42:56.118Z,43.40
2019-04-25T16:45:28.927Z,42.83
2019-04-25T16:48:01.402Z,43.63
2019-04-25T16:50:34.218Z,44.07
2019-04-25T16:53:06.123Z,44.53
2019-04-25T16:55:38.793Z,44.78
2019-04-25T16:58:10.687Z,45.41
2019-04-25T17:00:48.971Z,46.13
2019-04-25T17:03:23.161Z,47.13
2019-04-25T17:05:55.185Z,48.02
2019-04-25T17:08:26.952Z,48.45
2019-04-25T17:10:58.405Z,48.47
2019-04-25T17:13:32.109Z,48.56
2019-04-25T17:16:32.575Z,48.74
2019-04-25T17:19:08.914Z,49.32
2019-04-25T17:21:41.087Z,50.01
2019-04-25T17:24:12.635Z,50.95
2019-04-25T17:26:44.206Z,51.21
2019-04-25T17:29:19.463Z,51.52
2019-04-25T17:32:01.704Z,52.14
2019-04-25T17:35:04.768Z,52.49
2019-04-25T17:37:46.772Z,52.52
2019-04-25T17:40:21.421Z,52.62
2019-04-25T17:42:53.009Z,52.86
2019-04-25T17:45:29.199Z,52.21
2019-04-25T17:48:01.438Z,51.61
2019-04-25T17:50:34.165Z,51.06
2019-04-25T17:53:06.082Z,51.03
2019-04-25T17:55:37.613Z,50.80
2019-04-25T17:58:09.297Z,50.59
2019-04-25T18:00:42.840Z,50.66
2019-04-25T18:03:15.131Z,50.95
2019-04-25T18:05:46.943Z,51.42
2019-04-25T18:08:18.670Z,51.24
2019-04-25T18:10:50.783Z,51.21
2019-04-25T18:13:22.360Z,50.94
2019-04-25T18:16:12.836Z,50.91
2019-04-25T18:18:59.448Z,51.03
2019-04-25T18:21:31.943Z,50.95
2019-04-25T18:24:37.889Z,51.78
2019-04-25T18:27:16.446Z,51.75
2019-04-25T18:29:48.385Z,51.87
2019-04-25T18:32:20.247Z,52.02
2019-04-25T18:35:06.063Z,52.14
2019-04-25T18:38:05.810Z,51.78
2019-04-25T18:41:02.265Z,51.37
2019-04-25T18:43:39.979Z,51.64
2019-04-25T18:46:23.156Z,51.68
2019-04-25T18:48:54.842Z,51.87
2019-04-25T18:51:26.926Z,52.16
2019-04-25T18:54:13.603Z,52.38
2019-04-25T18:57:02.806Z,52.72
2019-04-25T18:59:46.065Z,52.95
2019-04-25T19:02:56.066Z,53.07
2019-04-25T19:05:55.588Z,53.46
2019-04-25T19:08:27.671Z,53.49
2019-04-25T19:10:59.277Z,52.87
2019-04-25T19:13:31.085Z,53.18
2019-04-25T19:16:02.694Z,53.84
2019-04-25T19:18:34.259Z,53.97
2019-04-25T19:21:06.199Z,54.22
2019-04-25T19:23:38.044Z,54.12
2019-04-25T19:26:10.005Z,54.50
2019-04-25T19:28:42.712Z,54.76
2019-04-25T19:31:14.658Z,55.04
2019-04-25T19:33:47.553Z,55.05
2019-04-25T19:36:19.349Z,55.18
2019-04-25T19:38:50.968Z,55.57
2019-04-25T19:41:31.896Z,55.59
2019-04-25T19:44:06.840Z,56.04
2019-04-25T19:46:41.467Z,55.58
2019-04-25T19:49:13.909Z,55.61
2019-04-25T19:51:45.653Z,55.58
2019-04-25T19:54:17.346Z,55.36
2019-04-25T19:56:49.610Z,55.38
2019-04-25T19:59:21.324Z,56.29
2019-04-25T20:01:55.160Z,56.29
2019-04-25T20:04:36.552Z,56.40
2019-04-25T20:07:17.555Z,56.87
2019-04-25T20:10:20.700Z,56.78
2019-04-25T20:12:54.876Z,57.02
2019-04-25T20:15:26.689Z,57.28
2019-04-25T20:17:58.561Z,57.54
2019-04-25T20:20:30.444Z,57.80
2019-04-25T20:23:02.397Z,57.99
2019-04-25T20:25:34.492Z,58.00
2019-04-25T20:28:06.166Z,58.30
2019-04-25T20:30:37.864Z,58.76
2019-04-25T20:33:09.377Z,58.47
2019-04-25T20:35:44.887Z,59.03
2019-04-25T20:38:17.461Z,59.66
2019-04-25T20:40:49.589Z,59.61
2019-04-25T20:43:21.394Z,59.45
2019-04-25T20:45:53.060Z,59.61
2019-04-25T20:48:25.423Z,60.09
2019-04-25T20:50:57.239Z,60.50
2019-04-25T20:53:28.866Z,60.79
2019-04-25T20:56:00.804Z,60.76
2019-04-25T20:58:32.922Z,60.82
2019-04-25T21:01:04.826Z,60.85
2019-04-25T21:03:36.603Z,61.14
2019-04-25T21:06:23.413Z,60.63
2019-04-25T21:08:57.549Z,61.27
2019-04-25T21:11:30.624Z,61.63
2019-04-25T21:14:19.632Z,61.66
2019-04-25T21:16:58.641Z,62.09
2019-04-25T21:19:32.498Z,62.16
2019-04-25T21:22:04.093Z,61.63
2019-04-25T21:24:35.740Z,61.15
2019-04-25T21:27:07.320Z,61.47
2019-04-25T21:29:39.181Z,61.13
2019-04-25T21:32:11.214Z,61.18
2019-04-25T21:34:43.195Z,61.23
2019-04-25T21:37:15.532Z,61.90
2019-04-25T21:39:59.680Z,61.92
2019-04-25T21:42:38.233Z,61.95
2019-04-25T21:45:11.146Z,61.95
2019-04-25T21:47:42.660Z,61.79
2019-04-25T21:50:14.826Z,62.23
2019-04-25T21:52:46.528Z,62.52
2019-04-25T21:55:18.560Z,62.57
2019-04-25T21:57:50.581Z,62.78
2019-04-25T22:00:40.209Z,62.53
2019-04-25T22:03:14.165Z,62.46
2019-04-25T22:05:46.286Z,62.24
2019-04-25T22:08:18.393Z,62.85
2019-04-25T22:10:50.825Z,63.07
2019-04-25T22:13:22.540Z,62.81
2019-04-25T22:15:55.094Z,62.72
2019-04-25T22:18:27.979Z,63.20
2019-04-25T22:21:00.224Z,63.28
2019-04-25T22:23:32.441Z,63.53
2019-04-25T22:26:04.909Z,63.35
2019-04-25T22:28:36.691Z,63.39
2019-04-25T22:31:16.432Z,63.30
2019-04-25T22:34:13.291Z,63.39
2019-04-25T22:36:45.435Z,63.52
2019-04-25T22:39:16.994Z,64.07
2019-04-25T22:41:49.100Z,64.15
2019-04-25T22:44:22.104Z,64.70
2019-04-25T22:46:54.551Z,64.73
2019-04-25T22:49:26.323Z,65.38
2019-04-25T22:51:58.096Z,66.02
2019-04-25T22:54:30.462Z,66.53
2019-04-25T22:57:02.605Z,66.54
2019-04-25T22:59:34.763Z,66.42
2019-04-25T23:02:27.524Z,66.59
2019-04-25T23:05:12.927Z,66.85
2019-04-25T23:07:39.119Z,67.37
2019-04-25T23:10:12.431Z,67.95
2019-04-25T23:12:43.830Z,68.30
2019-04-25T23:15:15.827Z,68.62
2019-04-25T23:17:47.752Z,68.35
2019-04-25T23:20:19.839Z,68.01
2019-04-25T23:22:51.545Z,67.69
2019-04-25T23:25:29.007Z,66.99
2019-04-25T23:28:14.810Z,67.06
2019-04-25T23:31:05.390Z,66.48
2019-04-25T23:33:37.798Z,66.35
2019-04-25T23:36:09.899Z,66.22
2019-04-25T23:38:42.552Z,66.36
2019-04-25T23:41:15.566Z,66.43
2019-04-25T23:43:50.831Z,66.58
2019-04-25T23:46:22.558Z,67.08
2019-04-25T23:48:54.111Z,67.39
2019-04-25T23:51:25.608Z,67.55
2019-04-25T23:53:57.732Z,67.89
2019-04-25T23:56:29.421Z,67.78
2019-04-25T23:59:01.702Z,67.69
